createdAt,value
2018-03-02T00:01:35.753Z,-4.60
2018-03-02T00:04:02.026Z,-4.90
2018-03-02T00:06:28.318Z,-4.80
2018-03-02T00:08:54.637Z,-4.80
2018-03-02T00:11:21.698Z,-4.80
2018-03-02T00:13:48.716Z,-4.80
2018-03-02T00:16:15.364Z,-4.80
2018-03-02T00:18:41.617Z,-4.90
2018-03-02T00:21:07.928Z,-4.90
2018-03-02T00:23:34.243Z,-4.80
2018-03-02T00:26:00.497Z,-4.90
2018-03-02T00:28:27.555Z,-4.90
2018-03-02T00:30:53.848Z,-5.00
2018-03-02T00:33:20.245Z,-5.00
2018-03-02T00:35:46.547Z,-5.00
2018-03-02T00:38:12.786Z,-5.10
2018-03-02T00:40:39.794Z,-5.10
2018-03-02T00:43:06.061Z,-5.10
2018-03-02T00:45:32.289Z,-5.10
2018-03-02T00:47:58.554Z,-5.10
2018-03-02T00:50:24.769Z,-5.10
2018-03-02T00:52:51.005Z,-5.10
2018-03-02T00:55:17.260Z,-5.10
2018-03-02T00:57:44.831Z,-5.00
2018-03-02T01:00:13.011Z,-5.00
2018-03-02T01:02:39.301Z,-5.10
2018-03-02T01:05:07.068Z,-5.10
2018-03-02T01:07:33.352Z,-5.20
2018-03-02T01:09:59.635Z,-5.20
2018-03-02T01:12:25.910Z,-5.20
2018-03-02T01:14:52.261Z,-5.20
2018-03-02T01:17:19.240Z,-5.20
2018-03-02T01:19:45.490Z,-5.20
2018-03-02T01:22:11.751Z,-5.20
2018-03-02T01:24:38.026Z,-5.20
2018-03-02T01:27:04.326Z,-5.20
2018-03-02T01:29:30.595Z,-5.30
2018-03-02T01:31:56.853Z,-5.20
2018-03-02T01:34:23.140Z,-5.20
2018-03-02T01:36:49.417Z,-5.20
2018-03-02T01:39:15.700Z,-5.30
2018-03-02T01:41:41.962Z,-5.30
2018-03-02T01:44:08.249Z,-5.30
2018-03-02T01:46:34.494Z,-5.40
2018-03-02T01:49:00.908Z,-5.40
2018-03-02T01:51:39.432Z,-5.40
2018-03-02T01:54:05.702Z,-5.50
2018-03-02T01:56:31.957Z,-5.50
2018-03-02T01:58:58.937Z,-5.50
2018-03-02T02:01:25.197Z,-5.50
2018-03-02T02:03:52.147Z,-5.40
2018-03-02T02:06:18.364Z,-5.50
2018-03-02T02:08:44.568Z,-5.50
2018-03-02T02:11:10.758Z,-5.50
2018-03-02T02:13:36.964Z,-5.50
2018-03-02T02:16:03.136Z,-5.60
2018-03-02T02:18:30.181Z,-5.60
2018-03-02T02:20:57.110Z,-5.60
2018-03-02T02:23:23.338Z,-5.60
2018-03-02T02:25:49.557Z,-5.50
2018-03-02T02:28:16.466Z,-5.60
2018-03-02T02:30:42.661Z,-5.60
2018-03-02T02:33:09.577Z,-5.50
2018-03-02T02:35:36.812Z,-5.50
2018-03-02T02:38:03.033Z,-5.50
2018-03-02T02:40:29.246Z,-5.50
2018-03-02T02:42:55.458Z,-5.40
2018-03-02T02:45:21.669Z,-5.70
2018-03-02T02:47:47.873Z,-5.60
2018-03-02T02:50:14.794Z,-5.60
2018-03-02T02:52:40.982Z,-5.60
2018-03-02T02:55:07.983Z,-5.60
2018-03-02T02:57:34.218Z,-5.60
2018-03-02T03:00:00.410Z,-5.60
2018-03-02T03:02:26.660Z,-5.50
2018-03-02T03:04:52.941Z,-5.60
2018-03-02T03:07:19.133Z,-5.60
2018-03-02T03:09:46.188Z,-5.70
2018-03-02T03:12:12.379Z,-5.70
2018-03-02T03:14:38.560Z,-5.70
2018-03-02T03:17:05.524Z,-5.80
2018-03-02T03:19:31.711Z,-5.80
2018-03-02T03:21:57.937Z,-5.70
2018-03-02T03:24:24.130Z,-5.80
2018-03-02T03:26:50.310Z,-5.80
2018-03-02T03:29:16.573Z,-5.80
2018-03-02T03:31:42.857Z,-5.90
2018-03-02T03:34:09.923Z,-5.90
2018-03-02T03:36:36.113Z,-5.80
2018-03-02T03:39:02.370Z,-5.70
2018-03-02T03:41:28.633Z,-5.80
2018-03-02T03:43:54.836Z,-5.80
2018-03-02T03:46:21.054Z,-5.80
2018-03-02T03:48:47.268Z,-5.80
2018-03-02T03:51:14.307Z,-5.80
2018-03-02T03:53:40.509Z,-5.90
2018-03-02T03:56:06.737Z,-5.80
2018-03-02T03:58:32.953Z,-5.80
2018-03-02T04:01:00.187Z,-5.90
2018-03-02T04:03:26.457Z,-5.90
2018-03-02T04:05:52.681Z,-5.90
2018-03-02T04:08:18.895Z,-6.10
2018-03-02T04:10:45.097Z,-5.80
2018-03-02T04:13:11.346Z,-5.90
2018-03-02T04:15:37.584Z,-5.90
2018-03-02T04:18:03.804Z,-6.00
2018-03-02T04:20:30.009Z,-6.00
2018-03-02T04:22:56.221Z,-6.00
2018-03-02T04:25:22.488Z,-6.00
2018-03-02T04:27:48.682Z,-6.00
2018-03-02T04:30:14.960Z,-5.90
2018-03-02T04:32:41.560Z,-6.00
2018-03-02T04:35:07.746Z,-6.10
2018-03-02T04:37:33.978Z,-6.10
2018-03-02T04:40:00.173Z,-6.10
2018-03-02T04:42:26.370Z,-6.10
2018-03-02T04:44:52.561Z,-6.20
2018-03-02T04:47:18.806Z,-6.20
2018-03-02T04:49:45.022Z,-6.20
2018-03-02T04:52:12.028Z,-6.20
2018-03-02T04:54:38.217Z,-6.20
2018-03-02T04:57:04.421Z,-6.20
2018-03-02T04:59:30.628Z,-6.10
2018-03-02T05:01:56.853Z,-6.20
2018-03-02T05:04:23.089Z,-6.20
2018-03-02T05:06:49.494Z,-6.20
2018-03-02T05:09:15.710Z,-6.30
2018-03-02T05:11:41.914Z,-6.20
2018-03-02T05:14:08.164Z,-6.20
2018-03-02T05:16:34.397Z,-6.20
2018-03-02T05:19:01.346Z,-6.30
2018-03-02T05:21:27.545Z,-6.30
2018-03-02T05:23:53.845Z,-6.30
2018-03-02T05:26:20.076Z,-6.30
2018-03-02T05:28:47.046Z,-6.20
2018-03-02T05:31:13.989Z,-6.20
2018-03-02T05:33:40.185Z,-6.20
2018-03-02T05:36:06.401Z,-6.50
2018-03-02T05:38:32.576Z,-6.20
2018-03-02T05:40:58.768Z,-6.30
2018-03-02T05:43:25.690Z,-6.40
2018-03-02T05:45:51.992Z,-6.40
2018-03-02T05:48:18.173Z,-6.20
2018-03-02T05:50:45.838Z,-6.20
2018-03-02T05:53:12.081Z,-6.20
2018-03-02T05:55:39.361Z,-6.10
2018-03-02T05:58:06.319Z,-6.40
2018-03-02T06:00:33.289Z,-6.40
2018-03-02T06:02:59.542Z,-6.20
2018-03-02T06:05:25.809Z,-6.50
2018-03-02T06:07:52.398Z,-6.30
2018-03-02T06:10:18.650Z,-6.30
2018-03-02T06:12:44.936Z,-6.40
2018-03-02T06:15:11.193Z,-6.30
2018-03-02T06:17:37.438Z,-6.30
2018-03-02T06:20:03.774Z,-6.20
2018-03-02T06:22:29.986Z,-6.20
2018-03-02T06:24:56.253Z,-6.30
2018-03-02T06:27:22.489Z,-6.40
2018-03-02T06:29:51.129Z,-6.40
2018-03-02T06:32:17.484Z,-6.40
2018-03-02T06:34:43.737Z,-6.50
2018-03-02T06:37:10.026Z,-6.50
2018-03-02T06:39:38.625Z,-6.50
2018-03-02T06:42:04.891Z,-6.50
2018-03-02T06:44:31.885Z,-6.60
2018-03-02T06:46:58.153Z,-6.60
2018-03-02T06:49:24.398Z,-6.60
2018-03-02T06:51:50.642Z,-6.60
2018-03-02T06:54:16.881Z,-6.60
2018-03-02T06:56:45.724Z,-6.50
2018-03-02T06:59:12.717Z,-6.50
2018-03-02T07:01:39.037Z,-6.50
2018-03-02T07:04:05.270Z,-6.40
2018-03-02T07:06:32.326Z,-6.30
2018-03-02T07:08:58.574Z,-6.30
2018-03-02T07:11:25.574Z,-6.50
2018-03-02T07:13:55.983Z,-6.50
2018-03-02T07:16:22.260Z,-6.60
2018-03-02T07:18:48.521Z,-6.50
2018-03-02T07:21:14.758Z,-6.20
2018-03-02T07:23:41.009Z,-6.30
2018-03-02T07:26:07.266Z,-6.30
2018-03-02T07:28:33.517Z,-6.30
2018-03-02T07:31:03.034Z,-6.20
2018-03-02T07:33:29.281Z,-6.20
2018-03-02T07:35:55.609Z,-6.00
2018-03-02T07:38:21.900Z,-6.00
2018-03-02T07:40:48.119Z,-6.00
2018-03-02T07:43:14.348Z,-6.20
2018-03-02T07:45:40.612Z,-6.20
2018-03-02T07:48:09.445Z,-6.10
2018-03-02T07:50:35.692Z,-6.10
2018-03-02T07:53:01.937Z,-6.00
2018-03-02T07:55:28.166Z,-6.00
2018-03-02T07:57:54.410Z,-5.90
2018-03-02T08:00:20.902Z,-5.90
2018-03-02T08:02:47.158Z,-5.70
2018-03-02T08:05:16.976Z,-5.90
2018-03-02T08:07:43.231Z,-5.90
2018-03-02T08:10:09.517Z,-5.70
2018-03-02T08:12:35.805Z,-5.30
2018-03-02T08:15:02.045Z,-5.00
2018-03-02T08:17:29.076Z,-4.90
2018-03-02T08:19:55.318Z,-4.90
2018-03-02T08:22:23.921Z,-4.70
2018-03-02T08:24:50.165Z,-4.30
2018-03-02T08:27:16.481Z,-4.10
2018-03-02T08:29:42.732Z,-4.30
2018-03-02T08:32:09.022Z,-4.10
2018-03-02T08:34:36.021Z,-3.60
2018-03-02T08:37:02.294Z,-3.60
2018-03-02T08:39:30.310Z,-3.50
2018-03-02T08:41:56.601Z,-3.40
2018-03-02T08:44:22.877Z,-3.40
2018-03-02T08:46:49.173Z,-3.20
2018-03-02T08:49:15.473Z,-2.80
2018-03-02T08:51:41.794Z,-2.90
2018-03-02T08:54:08.055Z,-3.20
2018-03-02T08:56:36.550Z,-2.90
2018-03-02T08:59:03.598Z,-3.00
2018-03-02T09:01:31.107Z,-2.70
2018-03-02T09:03:58.112Z,-2.70
2018-03-02T09:06:24.391Z,-2.70
2018-03-02T09:08:50.652Z,-2.30
2018-03-02T09:11:16.908Z,-2.10
2018-03-02T09:13:46.402Z,-2.10
2018-03-02T09:16:13.428Z,-1.70
2018-03-02T09:18:40.642Z,-1.70
2018-03-02T09:21:07.670Z,-1.60
2018-03-02T09:23:33.946Z,-1.60
2018-03-02T09:26:00.959Z,-1.30
2018-03-02T09:28:27.241Z,-1.30
2018-03-02T09:30:56.022Z,-0.90
2018-03-02T09:33:22.994Z,-1.00
2018-03-02T09:35:50.039Z,-0.80
2018-03-02T09:38:17.055Z,-1.10
2018-03-02T09:40:43.341Z,-1.10
2018-03-02T09:43:09.586Z,-1.10
2018-03-02T09:45:36.610Z,-1.20
2018-03-02T09:48:02.873Z,-1.20
2018-03-02T09:50:29.141Z,-0.90
2018-03-02T09:52:57.452Z,-0.70
2018-03-02T09:55:23.733Z,-0.70
2018-03-02T09:57:49.998Z,-1.00
2018-03-02T10:00:17.017Z,-0.80
2018-03-02T10:02:44.023Z,-0.80
2018-03-02T10:05:11.056Z,-0.90
2018-03-02T10:07:37.316Z,-0.90
2018-03-02T10:10:07.512Z,-1.00
2018-03-02T10:12:33.790Z,-1.00
2018-03-02T10:15:00.822Z,0.00
2018-03-02T10:17:27.106Z,0.00
2018-03-02T10:19:54.136Z,0.00
2018-03-02T10:22:20.467Z,0.00
2018-03-02T10:24:46.749Z,-0.10
2018-03-02T10:27:18.094Z,0.20
2018-03-02T10:29:44.379Z,0.10
2018-03-02T10:32:11.353Z,0.30
2018-03-02T10:34:37.605Z,0.30
2018-03-02T10:37:03.838Z,0.10
2018-03-02T10:39:30.105Z,0.50
2018-03-02T10:41:56.357Z,0.60
2018-03-02T10:44:24.412Z,0.70
2018-03-02T10:46:50.656Z,0.20
2018-03-02T10:49:16.917Z,0.00
2018-03-02T10:51:43.158Z,0.20
2018-03-02T10:54:09.393Z,0.00
2018-03-02T10:56:35.635Z,0.10
2018-03-02T10:59:02.642Z,0.10
2018-03-02T11:01:31.429Z,0.10
2018-03-02T11:04:00.509Z,-0.10
2018-03-02T11:06:26.777Z,0.00
2018-03-02T11:08:53.036Z,0.30
2018-03-02T11:11:21.122Z,0.00
2018-03-02T11:13:47.414Z,0.20
2018-03-02T11:16:18.246Z,0.20
2018-03-02T11:18:45.228Z,0.30
2018-03-02T11:21:11.469Z,0.30
2018-03-02T11:23:37.714Z,0.70
2018-03-02T11:26:03.965Z,0.60
2018-03-02T11:28:30.477Z,0.60
2018-03-02T11:30:57.450Z,0.40
2018-03-02T11:33:27.954Z,0.40
2018-03-02T11:35:54.189Z,0.40
2018-03-02T11:38:20.449Z,0.20
2018-03-02T11:40:47.436Z,0.30
2018-03-02T11:43:13.666Z,0.20
2018-03-02T11:45:40.669Z,0.40
2018-03-02T11:48:06.907Z,0.40
2018-03-02T11:50:34.602Z,0.10
2018-03-02T11:53:00.845Z,0.10
2018-03-02T11:55:27.074Z,0.00
2018-03-02T11:57:53.321Z,0.10
2018-03-02T12:00:19.687Z,0.30
2018-03-02T12:05:18.744Z,0.90
2018-03-02T12:07:45.741Z,1.20
2018-03-02T12:10:11.977Z,1.20
2018-03-02T12:12:38.252Z,1.40
2018-03-02T12:15:04.489Z,1.50
2018-03-02T12:17:30.739Z,1.50
2018-03-02T12:19:57.044Z,1.40
2018-03-02T12:22:25.354Z,1.60
2018-03-02T12:24:51.587Z,1.60
2018-03-02T12:27:17.834Z,1.80
2018-03-02T12:29:44.081Z,2.00
2018-03-02T12:32:11.078Z,2.10
2018-03-02T12:34:37.319Z,2.00
2018-03-02T12:37:04.569Z,1.90
2018-03-02T12:39:33.293Z,2.00
2018-03-02T12:41:59.561Z,2.10
2018-03-02T12:44:25.873Z,2.10
2018-03-02T12:46:52.081Z,1.70
2018-03-02T12:49:18.416Z,1.50
2018-03-02T12:51:44.662Z,1.30
2018-03-02T12:54:10.915Z,1.20
2018-03-02T12:56:37.162Z,1.00
2018-03-02T12:59:04.949Z,0.90
2018-03-02T13:01:31.199Z,1.10
2018-03-02T13:03:57.436Z,1.30
2018-03-02T13:06:23.670Z,1.30
2018-03-02T13:08:49.915Z,1.30
2018-03-02T13:11:16.161Z,1.50
2018-03-02T13:13:42.440Z,1.90
2018-03-02T13:16:10.070Z,1.80
2018-03-02T13:18:41.066Z,1.60
2018-03-02T13:21:07.336Z,1.80
2018-03-02T13:23:33.535Z,1.40
2018-03-02T13:25:59.861Z,1.50
2018-03-02T13:28:40.019Z,1.40
2018-03-02T13:31:10.089Z,1.30
2018-03-02T13:33:48.657Z,1.40
2018-03-02T13:36:14.938Z,1.20
2018-03-02T13:38:41.218Z,1.10
2018-03-02T13:41:20.553Z,1.10
2018-03-02T13:43:46.829Z,1.10
2018-03-02T13:46:13.885Z,1.10
2018-03-02T13:48:54.037Z,1.10
2018-03-02T13:51:20.290Z,1.10
2018-03-02T13:53:47.404Z,1.50
2018-03-02T13:56:26.216Z,1.50
2018-03-02T13:58:55.585Z,1.50
2018-03-02T14:01:21.846Z,1.40
2018-03-02T14:04:01.104Z,1.60
2018-03-02T14:06:27.391Z,1.60
2018-03-02T14:08:53.718Z,1.20
2018-03-02T14:11:21.338Z,1.00
2018-03-02T14:13:48.177Z,1.00
2018-03-02T14:16:14.441Z,0.90
2018-03-02T14:18:41.568Z,1.30
2018-03-02T14:21:07.824Z,1.30
2018-03-02T14:23:34.151Z,1.40
2018-03-02T14:26:00.525Z,1.40
2018-03-02T14:28:28.764Z,1.30
2018-03-02T14:30:55.030Z,1.20
2018-03-02T14:33:21.302Z,1.40
2018-03-02T14:35:47.638Z,1.30
2018-03-02T14:38:14.165Z,1.10
2018-03-02T14:40:40.430Z,1.10
2018-03-02T14:43:06.717Z,1.20
2018-03-02T14:45:36.457Z,1.00
2018-03-02T14:48:02.730Z,1.00
2018-03-02T14:50:28.995Z,1.10
2018-03-02T14:52:55.553Z,1.00
2018-03-02T14:55:21.797Z,0.90
2018-03-02T14:57:48.807Z,1.00
2018-03-02T15:00:15.093Z,1.00
2018-03-02T15:02:46.162Z,1.10
2018-03-02T15:05:12.410Z,1.10
2018-03-02T15:07:39.431Z,0.90
2018-03-02T15:10:05.735Z,0.80
2018-03-02T15:12:32.826Z,0.70
2018-03-02T15:14:59.099Z,0.70
2018-03-02T15:17:25.380Z,0.80
2018-03-02T15:19:55.774Z,0.80
2018-03-02T15:22:22.153Z,1.00
2018-03-02T15:24:49.261Z,1.10
2018-03-02T15:27:15.559Z,1.10
2018-03-02T15:29:42.567Z,1.00
2018-03-02T15:32:08.903Z,1.00
2018-03-02T15:37:06.396Z,1.10
2018-03-02T15:39:32.753Z,1.20
2018-03-02T15:41:59.062Z,1.20
2018-03-02T15:44:26.115Z,0.90
2018-03-02T15:46:52.385Z,0.90
2018-03-02T15:49:18.655Z,0.90
2018-03-02T15:51:47.343Z,0.80
2018-03-02T15:54:13.592Z,0.70
2018-03-02T15:56:39.818Z,0.70
2018-03-02T15:59:06.101Z,0.80
2018-03-02T16:01:32.249Z,0.70
2018-03-02T16:03:58.491Z,0.60
2018-03-02T16:06:24.767Z,0.70
2018-03-02T16:08:51.046Z,0.60
2018-03-02T16:11:22.157Z,0.50
2018-03-02T16:13:48.407Z,0.50
2018-03-02T16:16:14.689Z,0.40
2018-03-02T16:18:41.674Z,0.20
2018-03-02T16:21:07.965Z,0.20
2018-03-02T16:23:34.258Z,0.20
2018-03-02T16:26:02.812Z,0.20
2018-03-02T16:28:29.788Z,0.10
2018-03-02T16:30:56.029Z,0.10
2018-03-02T16:33:22.278Z,0.10
2018-03-02T16:35:48.553Z,0.10
2018-03-02T16:38:14.829Z,0.10
2018-03-02T16:40:41.101Z,0.10
2018-03-02T16:43:07.429Z,0.00
2018-03-02T16:45:33.708Z,-0.10
2018-03-02T16:47:59.985Z,-0.10
2018-03-02T16:50:26.321Z,-0.30
2018-03-02T16:52:53.333Z,-0.20
2018-03-02T16:55:20.334Z,-0.20
2018-03-02T16:57:46.634Z,-0.20
2018-03-02T17:00:12.902Z,-0.30
2018-03-02T17:02:39.169Z,-0.20
2018-03-02T17:05:05.441Z,-0.30
2018-03-02T17:07:34.436Z,-0.30
2018-03-02T17:10:00.769Z,-0.40
2018-03-02T17:12:27.020Z,-0.50
2018-03-02T17:14:53.310Z,-0.50
2018-03-02T17:17:20.471Z,-0.40
2018-03-02T17:19:46.805Z,-0.50
2018-03-02T17:22:13.104Z,-0.40
2018-03-02T17:24:39.433Z,-0.50
2018-03-02T17:27:05.725Z,-0.50
2018-03-02T17:29:32.745Z,-0.50
2018-03-02T17:31:59.030Z,-0.70
2018-03-02T17:34:25.350Z,-0.90
2018-03-02T17:36:51.784Z,-0.70
2018-03-02T17:39:18.009Z,-0.70
2018-03-02T17:41:44.394Z,-0.70
2018-03-02T17:44:10.679Z,-0.60
2018-03-02T17:46:37.043Z,-0.70
2018-03-02T17:49:03.367Z,-0.60
2018-03-02T17:51:30.373Z,-0.60
2018-03-02T17:53:56.641Z,-0.60
2018-03-02T17:56:22.907Z,-0.60
2018-03-02T17:58:49.161Z,-0.50
2018-03-02T18:01:16.165Z,-0.80
2018-03-02T18:03:42.465Z,-0.80
2018-03-02T18:06:08.852Z,-0.70
2018-03-02T18:08:35.255Z,-0.60
2018-03-02T18:11:02.327Z,-0.80
2018-03-02T18:16:31.865Z,-0.70
2018-03-02T18:18:58.118Z,-0.90
2018-03-02T18:21:24.366Z,-0.90
2018-03-02T18:23:50.633Z,-0.80
2018-03-02T18:26:19.422Z,-0.80
2018-03-02T18:28:47.498Z,-0.80
2018-03-02T18:31:13.725Z,-0.80
2018-03-02T18:33:39.990Z,-0.80
2018-03-02T18:36:06.227Z,-0.90
2018-03-02T18:38:32.474Z,-0.80
2018-03-02T18:40:59.559Z,-0.60
2018-03-02T18:43:25.842Z,-0.70
2018-03-02T18:45:52.066Z,-0.80
2018-03-02T18:48:18.314Z,-0.80
2018-03-02T18:50:44.537Z,-0.90
2018-03-02T18:53:10.790Z,-1.00
2018-03-02T18:55:37.229Z,-1.00
2018-03-02T18:58:03.605Z,-1.10
2018-03-02T19:00:29.897Z,-1.00
2018-03-02T19:02:56.118Z,-1.10
2018-03-02T19:05:23.133Z,-1.00
2018-03-02T19:07:49.391Z,-1.00
2018-03-02T19:10:15.625Z,-1.10
2018-03-02T19:12:41.854Z,-1.10
2018-03-02T19:15:08.136Z,-1.30
2018-03-02T19:17:34.370Z,-1.20
2018-03-02T19:20:00.659Z,-1.40
2018-03-02T19:22:26.977Z,-1.40
2018-03-02T19:24:53.230Z,-1.30
2018-03-02T19:27:20.192Z,-1.30
2018-03-02T19:29:46.495Z,-1.40
2018-03-02T19:32:12.765Z,-1.30
2018-03-02T19:34:39.009Z,-1.40
2018-03-02T19:37:05.226Z,-1.30
2018-03-02T19:39:31.473Z,-1.30
2018-03-02T19:41:57.695Z,-1.20
2018-03-02T19:44:23.912Z,-1.30
2018-03-02T19:46:50.153Z,-1.30
2018-03-02T19:49:17.129Z,-1.20
2018-03-02T19:51:43.376Z,-1.20
2018-03-02T19:54:10.355Z,-1.30
2018-03-02T19:56:36.610Z,-1.30
2018-03-02T19:59:02.886Z,-1.30
2018-03-02T20:01:29.149Z,-1.30
2018-03-02T20:03:55.457Z,-1.20
2018-03-02T20:06:22.255Z,-1.20
2018-03-02T20:08:48.477Z,-1.30
2018-03-02T20:11:14.849Z,-1.20
2018-03-02T20:13:41.826Z,-1.30
2018-03-02T20:16:08.077Z,-1.20
2018-03-02T20:18:34.290Z,-1.30
2018-03-02T20:21:01.633Z,-1.20
2018-03-02T20:23:27.940Z,-1.10
2018-03-02T20:25:54.921Z,-1.20
2018-03-02T20:28:21.449Z,-1.20
2018-03-02T20:30:47.724Z,-1.10
2018-03-02T20:33:14.045Z,-1.00
2018-03-02T20:35:40.297Z,-0.90
2018-03-02T20:38:06.635Z,-1.00
2018-03-02T20:40:33.633Z,-1.00
2018-03-02T20:42:59.899Z,-1.00
2018-03-02T20:45:26.300Z,-0.90
2018-03-02T20:47:52.609Z,-0.80
2018-03-02T20:50:18.873Z,-0.70
2018-03-02T20:52:45.173Z,-0.80
2018-03-02T20:55:11.476Z,-0.90
2018-03-02T20:57:38.524Z,-0.60
2018-03-02T21:00:04.845Z,-0.70
2018-03-02T21:02:31.853Z,-0.70
2018-03-02T21:04:58.087Z,-0.70
2018-03-02T21:07:25.377Z,-0.70
2018-03-02T21:09:51.594Z,-0.70
2018-03-02T21:12:18.615Z,-0.70
2018-03-02T21:14:44.849Z,-0.70
2018-03-02T21:17:11.095Z,-0.70
2018-03-02T21:19:37.317Z,-0.70
2018-03-02T21:22:03.553Z,-0.70
2018-03-02T21:24:29.766Z,-0.80
2018-03-02T21:26:56.006Z,-0.80
2018-03-02T21:29:22.267Z,-0.80
2018-03-02T21:31:49.254Z,-0.90
2018-03-02T21:34:18.977Z,-0.90
2018-03-02T21:36:41.802Z,-0.70
2018-03-02T21:39:08.074Z,-0.70
2018-03-02T21:41:34.326Z,-0.70
2018-03-02T21:44:01.333Z,-0.60
2018-03-02T21:46:27.534Z,-0.60
2018-03-02T21:48:53.826Z,-0.60
2018-03-02T21:51:20.843Z,-0.60
2018-03-02T21:53:47.115Z,-0.60
2018-03-02T21:56:14.098Z,-0.60
2018-03-02T21:58:40.369Z,-0.60
2018-03-02T22:01:07.374Z,-0.50
2018-03-02T22:03:33.610Z,-0.50
2018-03-02T22:05:59.842Z,-0.50
2018-03-02T22:08:26.082Z,-0.50
2018-03-02T22:10:52.309Z,-0.50
2018-03-02T22:13:18.557Z,-0.60
2018-03-02T22:15:44.782Z,-0.50
2018-03-02T22:18:11.022Z,-0.60
2018-03-02T22:20:38.005Z,-0.50
2018-03-02T22:23:04.273Z,-0.50
2018-03-02T22:25:30.513Z,-0.50
2018-03-02T22:27:56.728Z,-0.40
2018-03-02T22:30:22.990Z,-0.40
2018-03-02T22:32:49.225Z,-0.40
2018-03-02T22:35:16.234Z,-0.50
2018-03-02T22:37:42.488Z,-0.50
2018-03-02T22:40:08.841Z,-0.40
2018-03-02T22:42:35.817Z,-0.40
2018-03-02T22:45:02.786Z,-0.30
2018-03-02T22:47:29.037Z,-0.40
2018-03-02T22:49:55.277Z,-0.20
2018-03-02T22:52:23.545Z,-0.10
2018-03-02T22:54:49.782Z,-0.30
2018-03-02T22:57:16.769Z,-0.30
2018-03-02T22:59:43.003Z,-0.30
2018-03-02T23:02:10.097Z,-0.20
2018-03-02T23:04:36.343Z,-0.40
2018-03-02T23:07:03.337Z,-0.40
2018-03-02T23:09:29.625Z,-0.40
2018-03-02T23:11:56.605Z,-0.60
2018-03-02T23:14:22.834Z,-0.60
2018-03-02T23:16:49.814Z,-0.60
2018-03-02T23:19:16.014Z,-0.60
2018-03-02T23:21:43.192Z,-0.70
2018-03-02T23:24:10.205Z,-0.70
2018-03-02T23:26:36.474Z,-0.70
2018-03-02T23:29:02.705Z,-0.80
2018-03-02T23:31:28.952Z,-0.90
2018-03-02T23:33:55.178Z,-0.90
2018-03-02T23:36:22.750Z,-0.90
2018-03-02T23:38:48.982Z,-0.90
2018-03-02T23:41:15.225Z,-0.80
2018-03-02T23:43:42.456Z,-0.70
2018-03-02T23:46:08.678Z,-0.70
2018-03-02T23:48:34.888Z,-0.70
2018-03-02T23:51:01.133Z,-0.70
2018-03-02T23:53:27.370Z,-0.70
2018-03-02T23:55:53.622Z,-0.50
2018-03-02T23:58:20.594Z,-0.70
